createdAt,value
2018-01-29T00:00:55.024Z,99.90
2018-01-29T00:03:22.484Z,99.90
2018-01-29T00:05:49.939Z,99.90
2018-01-29T00:08:17.433Z,99.90
2018-01-29T00:10:44.877Z,99.90
2018-01-29T00:13:12.358Z,99.90
2018-01-29T00:15:40.605Z,99.90
2018-01-29T00:18:08.102Z,99.90
2018-01-29T00:20:35.582Z,99.90
2018-01-29T00:23:03.893Z,99.90
2018-01-29T00:25:31.375Z,99.90
2018-01-29T00:27:58.858Z,99.90
2018-01-29T00:30:26.327Z,99.90
2018-01-29T00:32:53.783Z,99.90
2018-01-29T00:35:21.265Z,99.90
2018-01-29T00:37:48.742Z,99.90
2018-01-29T00:40:16.209Z,99.90
2018-01-29T00:42:43.690Z,99.90
2018-01-29T00:45:11.154Z,99.90
2018-01-29T00:47:38.649Z,99.90
2018-01-29T00:50:06.857Z,99.90
2018-01-29T00:52:34.315Z,99.90
2018-01-29T00:55:02.562Z,99.90
2018-01-29T00:57:30.024Z,99.90
2018-01-29T00:59:57.501Z,99.90
2018-01-29T01:02:24.969Z,99.90
2018-01-29T01:04:52.465Z,99.90
2018-01-29T01:07:20.718Z,99.90
2018-01-29T01:09:48.182Z,99.90
2018-01-29T01:12:15.681Z,99.90
2018-01-29T01:14:43.137Z,99.90
2018-01-29T01:17:10.606Z,99.90
2018-01-29T01:19:38.115Z,99.90
2018-01-29T01:22:05.572Z,99.90
2018-01-29T01:24:33.055Z,99.90
2018-01-29T01:27:00.527Z,99.90
2018-01-29T01:29:27.998Z,99.90
2018-01-29T01:31:55.497Z,99.90
2018-01-29T01:34:22.958Z,99.90
2018-01-29T01:36:50.414Z,99.90
2018-01-29T01:39:17.901Z,99.90
2018-01-29T01:41:46.218Z,99.90
2018-01-29T01:44:13.710Z,99.90
2018-01-29T01:46:41.181Z,99.90
2018-01-29T01:49:08.658Z,99.90
2018-01-29T01:51:36.162Z,99.90
2018-01-29T01:54:03.637Z,99.90
2018-01-29T01:56:31.093Z,99.90
2018-01-29T01:58:58.574Z,99.90
2018-01-29T02:01:26.034Z,99.90
2018-01-29T02:03:53.518Z,99.90
2018-01-29T02:06:21.014Z,99.90
2018-01-29T02:08:48.482Z,99.90
2018-01-29T02:11:15.969Z,99.90
2018-01-29T02:13:43.423Z,99.90
2018-01-29T02:16:10.876Z,99.90
2018-01-29T02:18:39.149Z,99.90
2018-01-29T02:21:07.420Z,99.90
2018-01-29T02:23:34.881Z,99.90
2018-01-29T02:26:03.121Z,99.90
2018-01-29T02:28:30.604Z,99.90
2018-01-29T02:30:58.901Z,99.90
2018-01-29T02:33:26.370Z,99.90
2018-01-29T02:35:53.846Z,99.90
2018-01-29T02:38:21.342Z,99.90
2018-01-29T02:40:48.808Z,99.90
2018-01-29T02:43:17.050Z,99.90
2018-01-29T02:45:44.554Z,99.90
2018-01-29T02:48:12.006Z,99.90
2018-01-29T02:50:40.237Z,99.90
2018-01-29T02:53:07.729Z,99.90
2018-01-29T02:55:35.185Z,99.90
2018-01-29T02:58:02.642Z,99.90
2018-01-29T03:00:30.107Z,99.90
2018-01-29T03:02:57.570Z,99.90
2018-01-29T03:05:25.042Z,99.90
2018-01-29T03:07:52.498Z,99.90
2018-01-29T03:10:19.970Z,99.90
2018-01-29T03:12:47.430Z,99.90
2018-01-29T03:15:14.910Z,99.90
2018-01-29T03:17:42.409Z,99.90
2018-01-29T03:20:10.657Z,99.90
2018-01-29T03:22:38.118Z,99.90
2018-01-29T03:25:05.694Z,99.90
2018-01-29T03:27:33.157Z,99.90
2018-01-29T03:30:00.613Z,99.90
2018-01-29T03:32:28.142Z,99.90
2018-01-29T03:34:55.593Z,99.90
2018-01-29T03:37:23.065Z,99.90
2018-01-29T03:39:50.523Z,99.90
2018-01-29T03:42:17.997Z,99.90
2018-01-29T03:44:46.246Z,99.90
2018-01-29T03:47:13.714Z,99.90
2018-01-29T03:49:41.202Z,99.90
2018-01-29T03:52:08.697Z,99.90
2018-01-29T03:54:36.143Z,99.90
2018-01-29T03:57:03.570Z,99.90
2018-01-29T03:59:31.030Z,99.90
2018-01-29T04:01:58.463Z,99.90
2018-01-29T04:04:26.703Z,99.90
2018-01-29T04:06:54.156Z,99.90
2018-01-29T04:09:21.597Z,99.90
2018-01-29T04:11:49.061Z,99.90
2018-01-29T04:14:16.495Z,99.90
2018-01-29T04:16:43.955Z,99.90
2018-01-29T04:19:11.422Z,99.90
2018-01-29T04:21:38.861Z,99.90
2018-01-29T04:24:06.322Z,99.90
2018-01-29T04:26:33.770Z,99.90
2018-01-29T04:29:01.227Z,99.90
2018-01-29T04:31:28.662Z,99.90
2018-01-29T04:33:56.113Z,99.90
2018-01-29T04:36:23.555Z,99.90
2018-01-29T04:38:51.014Z,99.90
2018-01-29T04:41:18.475Z,99.90
2018-01-29T04:43:45.916Z,99.90
2018-01-29T04:46:15.981Z,99.90
2018-01-29T04:48:44.190Z,99.90
2018-01-29T04:51:11.626Z,99.90
2018-01-29T04:53:39.080Z,99.90
2018-01-29T04:56:06.534Z,99.90
2018-01-29T04:58:33.955Z,99.70
2018-01-29T05:01:01.419Z,99.10
2018-01-29T05:03:29.638Z,99.00
2018-01-29T05:05:57.093Z,99.00
2018-01-29T05:08:24.534Z,99.00
2018-01-29T05:10:51.982Z,99.00
2018-01-29T05:13:19.427Z,99.00
2018-01-29T05:15:47.634Z,98.90
2018-01-29T05:18:15.062Z,98.90
2018-01-29T05:20:42.506Z,98.90
2018-01-29T05:23:10.822Z,99.00
2018-01-29T05:25:38.272Z,99.00
2018-01-29T05:28:05.694Z,98.90
2018-01-29T05:30:33.155Z,98.90
2018-01-29T05:33:00.578Z,98.80
2018-01-29T05:35:28.130Z,99.00
2018-01-29T05:37:59.254Z,98.80
2018-01-29T05:40:26.697Z,98.80
2018-01-29T05:42:54.138Z,98.80
2018-01-29T05:45:21.620Z,98.50
2018-01-29T05:47:49.075Z,98.50
2018-01-29T05:50:16.542Z,98.60
2018-01-29T05:52:44.762Z,98.40
2018-01-29T05:55:12.226Z,98.40
2018-01-29T05:57:39.685Z,98.50
2018-01-29T06:00:07.889Z,98.50
2018-01-29T06:02:35.337Z,98.20
2018-01-29T06:05:02.782Z,97.90
2018-01-29T06:07:30.257Z,97.70
2018-01-29T06:09:57.715Z,97.60
2018-01-29T06:12:25.184Z,97.80
2018-01-29T06:14:52.614Z,97.60
2018-01-29T06:17:20.054Z,97.60
2018-01-29T06:19:47.511Z,97.40
2018-01-29T06:22:14.963Z,97.20
2018-01-29T06:24:42.418Z,97.10
2018-01-29T06:27:10.625Z,97.00
2018-01-29T06:29:38.085Z,97.00
2018-01-29T06:32:05.518Z,96.80
2018-01-29T06:34:33.731Z,96.60
2018-01-29T06:37:01.194Z,96.60
2018-01-29T06:39:28.632Z,96.50
2018-01-29T06:41:56.189Z,96.20
2018-01-29T06:44:23.631Z,96.30
2018-01-29T06:46:51.112Z,95.70
2018-01-29T06:49:18.533Z,95.90
2018-01-29T06:51:46.783Z,95.70
2018-01-29T06:54:14.214Z,95.70
2018-01-29T06:56:41.682Z,95.70
2018-01-29T06:59:09.138Z,95.30
2018-01-29T07:01:36.586Z,95.50
2018-01-29T07:04:04.018Z,95.30
2018-01-29T07:06:31.495Z,95.30
2018-01-29T07:08:58.931Z,95.50
2018-01-29T07:11:26.379Z,95.30
2018-01-29T07:13:53.840Z,95.20
2018-01-29T07:16:21.300Z,94.90
2018-01-29T07:18:48.744Z,95.10
2018-01-29T07:21:16.189Z,95.00
2018-01-29T07:23:44.415Z,95.10
2018-01-29T07:26:11.854Z,95.20
2018-01-29T07:28:39.310Z,95.20
2018-01-29T07:31:06.966Z,95.10
2018-01-29T07:33:34.395Z,95.10
2018-01-29T07:36:01.830Z,94.90
2018-01-29T07:38:29.295Z,94.70
2018-01-29T07:40:56.770Z,94.70
2018-01-29T07:43:24.194Z,94.20
2018-01-29T07:45:52.514Z,94.70
2018-01-29T07:48:19.958Z,94.40
2018-01-29T07:50:47.427Z,94.60
2018-01-29T07:53:14.874Z,94.30
2018-01-29T07:55:42.306Z,94.30
2018-01-29T07:58:09.758Z,94.20
2018-01-29T08:00:37.198Z,93.90
2018-01-29T08:03:04.655Z,94.20
2018-01-29T08:05:32.110Z,94.10
2018-01-29T08:07:59.559Z,94.10
2018-01-29T08:10:26.996Z,93.90
2018-01-29T08:12:54.451Z,94.00
2018-01-29T08:15:21.902Z,94.10
2018-01-29T08:17:50.214Z,93.80
2018-01-29T08:20:17.670Z,94.10
2018-01-29T08:22:45.139Z,94.10
2018-01-29T08:25:12.573Z,94.20
2018-01-29T08:27:40.003Z,94.20
2018-01-29T08:30:07.465Z,94.00
2018-01-29T08:32:34.918Z,93.80
2018-01-29T08:35:02.364Z,93.90
2018-01-29T08:37:29.820Z,93.90
2018-01-29T08:39:57.290Z,93.90
2018-01-29T08:42:24.750Z,93.90
2018-01-29T08:44:52.206Z,93.70
2018-01-29T08:47:19.662Z,93.50
2018-01-29T08:49:47.111Z,93.50
2018-01-29T08:52:14.542Z,93.80
2018-01-29T08:54:42.759Z,93.60
2018-01-29T08:57:10.197Z,93.60
2018-01-29T08:59:37.654Z,93.80
2018-01-29T09:02:05.088Z,93.90
2018-01-29T09:04:32.538Z,93.90
2018-01-29T09:07:00.752Z,93.90
2018-01-29T09:09:28.220Z,93.90
2018-01-29T09:11:55.670Z,93.70
2018-01-29T09:14:23.127Z,93.90
2018-01-29T09:16:50.575Z,93.80
2018-01-29T09:19:18.028Z,93.90
2018-01-29T09:21:45.454Z,93.70
2018-01-29T09:24:13.667Z,94.20
2018-01-29T09:26:41.220Z,93.90
2018-01-29T09:29:08.655Z,94.00
2018-01-29T09:31:36.882Z,93.90
2018-01-29T09:34:04.327Z,93.90
2018-01-29T09:36:31.769Z,94.20
2018-01-29T09:38:59.227Z,94.10
2018-01-29T09:41:26.768Z,94.20
2018-01-29T09:43:54.242Z,94.40
2018-01-29T09:46:21.704Z,94.30
2018-01-29T09:48:49.126Z,94.20
2018-01-29T09:51:17.363Z,94.30
2018-01-29T09:53:44.806Z,94.30
2018-01-29T09:56:12.254Z,94.30
2018-01-29T09:58:39.730Z,94.30
2018-01-29T10:01:07.219Z,94.20
2018-01-29T10:03:35.435Z,94.40
2018-01-29T10:06:02.872Z,94.10
2018-01-29T10:08:30.315Z,94.10
2018-01-29T10:10:57.742Z,94.20
2018-01-29T10:13:25.194Z,93.90
2018-01-29T10:15:52.628Z,94.00
2018-01-29T10:18:20.082Z,94.10
2018-01-29T10:20:47.532Z,94.00
2018-01-29T10:23:15.011Z,94.00
2018-01-29T10:25:42.454Z,93.90
2018-01-29T10:28:09.904Z,93.90
2018-01-29T10:30:37.361Z,93.90
2018-01-29T10:33:04.786Z,94.00
2018-01-29T10:35:33.002Z,94.10
2018-01-29T10:38:00.445Z,94.10
2018-01-29T10:40:27.907Z,94.20
2018-01-29T10:42:55.336Z,93.90
2018-01-29T10:45:22.762Z,93.90
2018-01-29T10:47:50.242Z,94.20
2018-01-29T10:50:17.658Z,94.30
2018-01-29T10:52:45.106Z,94.20
2018-01-29T10:55:12.554Z,94.50
2018-01-29T10:57:39.999Z,94.60
2018-01-29T11:00:07.462Z,94.50
2018-01-29T11:02:34.907Z,94.70
2018-01-29T11:05:02.338Z,94.70
2018-01-29T11:07:29.782Z,94.80
2018-01-29T11:09:57.987Z,94.90
2018-01-29T11:12:25.448Z,94.90
2018-01-29T11:14:52.894Z,95.00
2018-01-29T11:17:20.430Z,95.00
2018-01-29T11:19:48.666Z,95.10
2018-01-29T11:22:16.147Z,95.10
2018-01-29T11:24:43.582Z,95.40
2018-01-29T11:27:11.025Z,95.10
2018-01-29T11:29:38.670Z,95.20
2018-01-29T11:32:06.090Z,95.20
2018-01-29T11:34:33.557Z,95.30
2018-01-29T11:37:00.974Z,95.20
2018-01-29T11:39:28.427Z,95.20
2018-01-29T11:41:55.873Z,95.40
2018-01-29T11:44:23.306Z,95.50
2018-01-29T11:46:50.790Z,95.50
2018-01-29T11:49:18.221Z,95.50
2018-01-29T11:51:45.675Z,95.70
2018-01-29T11:54:13.100Z,95.70
2018-01-29T11:56:41.335Z,95.90
2018-01-29T11:59:08.794Z,95.90
2018-01-29T12:01:36.235Z,95.90
2018-01-29T12:04:03.695Z,96.00
2018-01-29T12:06:31.150Z,96.10
2018-01-29T12:08:58.607Z,96.10
2018-01-29T12:11:26.067Z,96.20
2018-01-29T12:13:53.518Z,96.20
2018-01-29T12:16:20.966Z,96.30
2018-01-29T12:18:48.421Z,96.40
2018-01-29T12:21:15.847Z,96.40
2018-01-29T12:23:43.298Z,96.50
2018-01-29T12:28:43.370Z,97.00
2018-01-29T12:31:10.810Z,96.80
2018-01-29T12:33:38.368Z,96.90
2018-01-29T12:36:05.799Z,97.00
2018-01-29T12:38:33.242Z,97.00
2018-01-29T12:41:00.694Z,97.10
2018-01-29T12:43:28.135Z,97.20
2018-01-29T12:45:55.570Z,97.30
2018-01-29T12:48:23.039Z,97.40
2018-01-29T12:50:50.476Z,97.60
2018-01-29T12:53:17.927Z,97.60
2018-01-29T12:55:45.382Z,97.60
2018-01-29T12:58:12.845Z,97.60
2018-01-29T13:00:40.277Z,97.60
2018-01-29T13:03:07.733Z,97.60
2018-01-29T13:05:35.173Z,97.60
2018-01-29T13:08:02.619Z,97.70
2018-01-29T13:10:30.067Z,97.80
2018-01-29T13:12:57.538Z,97.90
2018-01-29T13:15:24.991Z,97.90
2018-01-29T13:17:52.436Z,97.90
2018-01-29T13:20:19.874Z,97.90
2018-01-29T13:22:47.334Z,98.00
2018-01-29T13:25:14.779Z,98.00
2018-01-29T13:27:42.247Z,98.10
2018-01-29T13:30:09.685Z,98.20
2018-01-29T13:32:37.140Z,98.50
2018-01-29T13:35:04.574Z,98.30
2018-01-29T13:37:32.029Z,98.30
2018-01-29T13:40:00.298Z,98.40
2018-01-29T13:42:27.734Z,98.40
2018-01-29T13:44:55.163Z,98.40
2018-01-29T13:47:22.605Z,98.40
2018-01-29T13:49:50.056Z,98.40
2018-01-29T13:52:17.824Z,98.40
2018-01-29T13:54:45.262Z,98.40
2018-01-29T13:57:12.690Z,98.50
2018-01-29T13:59:40.963Z,98.40
2018-01-29T14:02:09.188Z,98.50
2018-01-29T14:04:36.642Z,98.50
2018-01-29T14:07:04.160Z,98.50
2018-01-29T14:09:31.558Z,98.50
2018-01-29T14:11:59.014Z,98.50
2018-01-29T14:14:26.445Z,98.60
2018-01-29T14:16:53.991Z,98.60
2018-01-29T14:19:22.183Z,98.70
2018-01-29T14:21:49.622Z,98.70
2018-01-29T14:24:17.846Z,98.70
2018-01-29T14:26:45.295Z,98.70
2018-01-29T14:29:12.754Z,98.70
2018-01-29T14:31:40.965Z,98.80
2018-01-29T14:34:08.402Z,98.80
2018-01-29T14:36:35.858Z,98.80
2018-01-29T14:39:03.298Z,98.80
2018-01-29T14:41:30.755Z,98.80
2018-01-29T14:43:58.192Z,98.80
2018-01-29T14:46:25.630Z,98.80
2018-01-29T14:48:53.178Z,98.80
2018-01-29T14:51:20.622Z,98.90
2018-01-29T14:53:48.094Z,99.00
2018-01-29T14:56:15.532Z,99.00
2018-01-29T14:58:42.967Z,99.10
2018-01-29T15:01:10.423Z,99.00
2018-01-29T15:03:37.879Z,99.00
2018-01-29T15:06:05.348Z,99.00
2018-01-29T15:08:32.795Z,98.90
2018-01-29T15:11:00.225Z,99.00
2018-01-29T15:13:27.709Z,99.00
2018-01-29T15:15:55.131Z,99.00
2018-01-29T15:18:22.578Z,98.90
2018-01-29T15:20:50.022Z,98.90
2018-01-29T15:23:17.484Z,98.90
2018-01-29T15:25:44.922Z,99.00
2018-01-29T15:28:13.114Z,99.00
2018-01-29T15:30:40.566Z,98.90
2018-01-29T15:33:08.007Z,98.90
2018-01-29T15:35:35.455Z,98.90
2018-01-29T15:38:02.888Z,99.00
2018-01-29T15:40:30.330Z,98.90
2018-01-29T15:42:57.768Z,98.80
2018-01-29T15:45:25.260Z,98.70
2018-01-29T15:47:52.686Z,98.70
2018-01-29T15:50:20.118Z,98.60
2018-01-29T15:52:48.354Z,98.70
2018-01-29T15:55:15.774Z,98.80
2018-01-29T15:57:43.234Z,98.70
2018-01-29T16:00:10.666Z,98.70
2018-01-29T16:02:38.105Z,98.80
2018-01-29T16:05:06.314Z,98.80
2018-01-29T16:07:33.738Z,98.80
2018-01-29T16:10:02.130Z,98.90
2018-01-29T16:12:29.551Z,98.90
2018-01-29T16:14:57.006Z,99.10
2018-01-29T16:17:24.460Z,98.80
2018-01-29T16:19:51.894Z,98.80
2018-01-29T16:22:19.334Z,98.80
2018-01-29T16:24:46.770Z,98.70
2018-01-29T16:27:14.202Z,98.70
2018-01-29T16:29:42.426Z,98.70
2018-01-29T16:32:09.866Z,98.70
2018-01-29T16:34:37.328Z,98.60
2018-01-29T16:37:04.762Z,98.60
2018-01-29T16:39:32.269Z,98.60
2018-01-29T16:41:59.706Z,98.60
2018-01-29T16:44:27.155Z,98.70
2018-01-29T16:46:54.598Z,98.60
2018-01-29T16:49:22.069Z,98.70
2018-01-29T16:51:49.484Z,98.60
2018-01-29T16:54:16.943Z,98.70
2018-01-29T16:56:44.371Z,98.70
2018-01-29T16:59:11.810Z,98.60
2018-01-29T17:01:39.258Z,98.70
2018-01-29T17:04:06.736Z,98.70
2018-01-29T17:06:34.174Z,98.70
2018-01-29T17:09:01.609Z,98.70
2018-01-29T17:11:29.078Z,98.70
2018-01-29T17:13:56.549Z,98.70
2018-01-29T17:16:24.070Z,98.70
2018-01-29T17:18:52.296Z,98.70
2018-01-29T17:21:19.726Z,98.70
2018-01-29T17:23:47.236Z,98.80
2018-01-29T17:26:14.694Z,98.80
2018-01-29T17:28:42.127Z,98.70
2018-01-29T17:31:09.558Z,98.70
2018-01-29T17:33:37.212Z,98.80
2018-01-29T17:36:04.691Z,98.80
2018-01-29T17:38:32.134Z,98.90
2018-01-29T17:40:59.595Z,98.90
2018-01-29T17:43:27.046Z,99.00
2018-01-29T17:45:54.474Z,98.90
2018-01-29T17:48:21.915Z,99.00
2018-01-29T17:50:49.410Z,99.00
2018-01-29T17:53:16.863Z,99.00
2018-01-29T17:55:44.305Z,99.00
2018-01-29T17:58:11.791Z,99.10
2018-01-29T18:00:39.248Z,99.10
2018-01-29T18:03:06.698Z,99.10
2018-01-29T18:05:34.250Z,99.10
2018-01-29T18:08:01.723Z,99.20
2018-01-29T18:10:29.189Z,99.20
2018-01-29T18:12:57.430Z,99.20
2018-01-29T18:15:24.864Z,99.20
2018-01-29T18:17:53.074Z,99.10
2018-01-29T18:20:20.547Z,99.10
2018-01-29T18:22:47.986Z,99.20
2018-01-29T18:25:15.682Z,99.10
2018-01-29T18:27:43.278Z,99.10
2018-01-29T18:30:11.506Z,99.10
2018-01-29T18:32:38.926Z,99.10
2018-01-29T18:35:06.394Z,99.20
2018-01-29T18:37:33.875Z,99.10
2018-01-29T18:40:01.315Z,99.10
2018-01-29T18:42:28.782Z,99.10
2018-01-29T18:44:56.202Z,99.10
2018-01-29T18:47:23.653Z,99.10
2018-01-29T18:49:51.078Z,99.10
2018-01-29T18:52:18.529Z,99.10
2018-01-29T18:54:46.047Z,99.10
2018-01-29T18:57:13.420Z,99.10
2018-01-29T18:59:40.860Z,99.20
2018-01-29T19:02:08.330Z,99.20
2018-01-29T19:04:35.767Z,99.20
2018-01-29T19:07:03.222Z,99.20
2018-01-29T19:09:30.668Z,99.20
2018-01-29T19:11:58.894Z,99.30
2018-01-29T19:14:27.095Z,99.20
2018-01-29T19:16:55.330Z,99.20
2018-01-29T19:19:22.780Z,99.20
2018-01-29T19:21:50.215Z,99.20
2018-01-29T19:24:17.674Z,99.30
2018-01-29T19:26:45.120Z,99.30
2018-01-29T19:29:12.600Z,99.30
2018-01-29T19:31:40.043Z,99.30
2018-01-29T19:34:07.507Z,99.30
2018-01-29T19:36:34.986Z,99.30
2018-01-29T19:39:02.422Z,99.30
2018-01-29T19:41:29.863Z,99.30
2018-01-29T19:43:57.345Z,99.40
2018-01-29T19:46:24.895Z,99.40
2018-01-29T19:48:52.338Z,99.50
2018-01-29T19:51:20.549Z,99.50
2018-01-29T19:53:48.126Z,99.50
2018-01-29T19:56:15.578Z,99.50
2018-01-29T19:58:43.034Z,99.60
2018-01-29T20:01:10.467Z,99.60
2018-01-29T20:03:37.976Z,99.60
2018-01-29T20:06:05.408Z,99.60
2018-01-29T20:08:32.878Z,99.60
2018-01-29T20:11:00.310Z,99.60
2018-01-29T20:13:27.752Z,99.60
2018-01-29T20:15:55.215Z,99.70
2018-01-29T20:18:22.758Z,99.70
2018-01-29T20:20:50.205Z,99.70
2018-01-29T20:23:18.431Z,99.80
2018-01-29T20:25:45.887Z,99.80
2018-01-29T20:28:13.323Z,99.80
2018-01-29T20:30:40.775Z,99.80
2018-01-29T20:33:08.299Z,99.80
2018-01-29T20:35:35.674Z,99.80
2018-01-29T20:38:03.903Z,99.80
2018-01-29T20:40:31.379Z,99.80
2018-01-29T20:42:58.822Z,99.70
2018-01-29T20:45:26.278Z,99.80
2018-01-29T20:47:53.730Z,99.70
2018-01-29T20:50:22.306Z,99.90
2018-01-29T20:52:50.028Z,99.70
2018-01-29T20:55:17.646Z,99.70
2018-01-29T20:57:45.100Z,99.70
2018-01-29T21:00:12.546Z,99.70
2018-01-29T21:02:40.070Z,99.70
2018-01-29T21:05:07.515Z,99.60
2018-01-29T21:07:35.780Z,99.60
2018-01-29T21:10:03.982Z,99.90
2018-01-29T21:12:31.524Z,99.60
2018-01-29T21:14:58.976Z,99.50
2018-01-29T21:17:26.499Z,99.50
2018-01-29T21:19:53.927Z,99.50
2018-01-29T21:22:21.371Z,99.60
2018-01-29T21:24:50.379Z,99.50
2018-01-29T21:27:17.821Z,99.60
2018-01-29T21:29:45.319Z,99.50
2018-01-29T21:32:12.792Z,99.50
2018-01-29T21:34:40.222Z,99.50
2018-01-29T21:37:07.691Z,99.40
2018-01-29T21:39:35.142Z,99.40
2018-01-29T21:42:02.606Z,99.40
2018-01-29T21:44:30.051Z,99.40
2018-01-29T21:46:57.510Z,99.40
2018-01-29T21:49:24.968Z,99.40
2018-01-29T21:51:52.490Z,99.40
2018-01-29T21:54:19.931Z,99.40
2018-01-29T21:56:47.387Z,99.40
2018-01-29T21:59:14.818Z,99.40
2018-01-29T22:01:42.276Z,99.50
2018-01-29T22:04:09.706Z,99.00
2018-01-29T22:06:37.143Z,98.40
2018-01-29T22:09:04.595Z,98.10
2018-01-29T22:11:32.029Z,98.10
2018-01-29T22:14:00.264Z,97.90
2018-01-29T22:16:27.682Z,97.90
2018-01-29T22:18:55.125Z,97.90
2018-01-29T22:21:22.596Z,97.90
2018-01-29T22:23:50.135Z,97.90
2018-01-29T22:26:17.592Z,98.00
2018-01-29T22:28:45.026Z,98.10
2018-01-29T22:31:13.254Z,98.20
2018-01-29T22:33:40.695Z,98.20
2018-01-29T22:36:08.137Z,98.30
2018-01-29T22:38:35.595Z,98.40
2018-01-29T22:41:03.038Z,98.40
2018-01-29T22:43:30.509Z,98.40
2018-01-29T22:45:57.967Z,98.60
2018-01-29T22:48:25.406Z,98.70
2018-01-29T22:50:53.630Z,98.80
2018-01-29T22:53:21.068Z,98.80
2018-01-29T22:55:48.524Z,98.80
2018-01-29T22:58:15.970Z,98.90
2018-01-29T23:00:43.439Z,98.90
2018-01-29T23:03:10.885Z,98.80
2018-01-29T23:05:38.319Z,98.70
2018-01-29T23:08:06.546Z,98.80
2018-01-29T23:10:33.998Z,98.70
2018-01-29T23:13:01.541Z,98.60
2018-01-29T23:15:28.974Z,98.60
2018-01-29T23:17:56.454Z,98.60
2018-01-29T23:20:23.906Z,98.50
2018-01-29T23:22:51.338Z,98.50
2018-01-29T23:25:19.570Z,98.80
2018-01-29T23:27:47.015Z,98.70
2018-01-29T23:30:14.487Z,98.70
2018-01-29T23:32:41.934Z,98.80
2018-01-29T23:35:10.134Z,98.90
2018-01-29T23:37:37.646Z,98.80
2018-01-29T23:40:05.078Z,98.90
2018-01-29T23:42:32.542Z,99.00
2018-01-29T23:44:59.978Z,99.10
2018-01-29T23:47:27.418Z,99.00
2018-01-29T23:49:54.878Z,98.90
2018-01-29T23:52:22.324Z,98.80
2018-01-29T23:54:49.798Z,98.60
2018-01-29T23:57:17.230Z,98.60
2018-01-29T23:59:44.666Z,98.60
